McZena, Ohio
Current Conditions -  °F | °C
As of 8:56 PM on Friday 24 Oct 2014 (Local Time) from KBJJ Reporting Station
Overcast Overcast  
Wind Chill: 56°   Ceiling: 4800
Heat Index: 56°   Visibility: 9mi
Dew Point: 45°   Wind: 0mph
Humidity: 67%   Direction: NA
Pressure: 30.02"   Gusts: NA
Location:  40.6482°N, 82.138°W
Report Text: KBJJ 250056Z AUTO 00000KT 9SM OVC048 13/07 A3002 RMK AO2 SLP169 T01330072 TSNO
Loading
Personal Weather Stations






























Interactive Weather Map
Tropical Storm Tracking
New forecast layout! Learn more

10-Day Weather Forecast

Advertisements
Track Severe Weather on mobile